Lees Cross Roads, Pennsylvania
Current Conditions -  °F | °C
As of 9:53 PM on Saturday 22 Nov 2014 (Local Time) from KRYT Reporting Station
Broken Clouds Broken Clouds  
Wind Chill: 39°   Ceiling: 10000
Heat Index: 42°   Visibility: 10mi
Dew Point: 17°   Wind: 5mph
Humidity: 37%   Direction: NA
Pressure: 30.18"   Gusts: NA
Location:  40.0414°N, 77.4967°W
Report Text: KRYT 230253Z AUTO VRB04KT 10SM BKN100 06/M08 A3018 RMK AO2 SLP233 T00561083 56014 $
Loading
Personal Weather Stations






























Interactive Weather Map New forecast layout! Learn more

10-Day Weather Forecast

Advertisements
Track Severe Weather on mobile